Time;durP1;ratioP1;P1;durP2;ratioP2;P2;SDS_P1;SDS_P2;PMS_P1;PMS_P2;Temp;Humidity;BMP_temperature;BMP_pressure;BME280_temperature;BME280_humidity;BME280_pressure;Samples;Min_cycle;Max_cycle;Signal;HPM_P1;HPM_P2
2021/11/18 00:01:14;;;;;;;6.80;1.40;;;6.70;99.90;;;;;;5015806;28;20257;-47
2021/11/18 00:03:41;;;;;;;9.63;1.63;;;6.70;99.90;;;;;;5024283;28;20206;-45
2021/11/18 00:06:08;;;;;;;11.17;2.37;;;6.70;99.90;;;;;;5019227;28;20231;-51
2021/11/18 00:08:35;;;;;;;11.43;1.57;;;6.70;99.90;;;;;;5023479;28;20208;-45
2021/11/18 00:11:06;;;;;;;8.73;2.07;;;6.60;99.90;;;;;;5013224;28;20407;-48
2021/11/18 00:13:34;;;;;;;8.43;1.67;;;6.60;99.90;;;;;;5021965;28;20203;-48
2021/11/18 00:16:02;;;;;;;8.03;1.50;;;6.60;99.90;;;;;;5019423;28;20657;-48
2021/11/18 00:18:30;;;;;;;13.03;2.27;;;6.60;99.90;;;;;;5021559;28;20210;-45
2021/11/18 00:20:59;;;;;;;4.87;1.40;;;6.60;99.90;;;;;;5022372;28;20673;-46
2021/11/18 00:23:29;;;;;;;6.10;2.17;;;6.60;99.90;;;;;;5022382;28;20202;-46
2021/11/18 00:25:55;;;;;;;12.03;2.03;;;6.60;99.90;;;;;;5022185;28;20204;-49
2021/11/18 00:28:23;;;;;;;7.30;1.80;;;6.70;99.90;;;;;;5008831;28;20204;-48
2021/11/18 00:30:51;;;;;;;6.93;1.67;;;6.70;99.90;;;;;;5021988;28;20223;-49
2021/11/18 00:33:18;;;;;;;5.43;1.30;;;6.70;99.90;;;;;;5014658;28;20203;-48
2021/11/18 00:35:45;;;;;;;6.03;1.83;;;6.70;99.90;;;;;;5023872;28;20200;-46
2021/11/18 00:38:12;;;;;;;13.40;2.17;;;6.70;99.90;;;;;;5019616;28;20196;-49
2021/11/18 00:40:42;;;;;;;9.40;2.23;;;6.60;99.90;;;;;;5022482;28;20210;-47
2021/11/18 00:43:11;;;;;;;7.77;1.67;;;6.60;99.90;;;;;;5007406;28;20216;-45
2021/11/18 00:45:40;;;;;;;5.63;1.47;;;6.60;99.90;;;;;;5022189;28;20222;-47
2021/11/18 00:48:07;;;;;;;8.47;1.40;;;6.50;99.90;;;;;;5014955;28;20231;-46
2021/11/18 00:50:37;;;;;;;4.70;1.60;;;6.50;99.90;;;;;;5022314;28;20575;-47
2021/11/18 00:53:04;;;;;;;7.10;1.93;;;6.50;99.90;;;;;;5018872;28;20207;-49
2021/11/18 00:55:32;;;;;;;8.83;1.30;;;6.50;99.90;;;;;;5021856;28;20207;-46
2021/11/18 00:58:03;;;;;;;7.03;1.40;;;6.50;99.90;;;;;;5007053;28;20227;-45
2021/11/18 01:00:32;;;;;;;15.40;2.07;;;6.40;99.90;;;;;;5022743;28;20207;-45
2021/11/18 01:03:03;;;;;;;6.07;1.67;;;6.40;99.90;;;;;;5014095;28;20212;-49
2021/11/18 01:05:32;;;;;;;8.87;1.67;;;6.40;99.90;;;;;;5021718;28;20664;-45
2021/11/18 01:08:00;;;;;;;12.03;2.23;;;6.30;99.90;;;;;;5021198;28;20223;-48
2021/11/18 01:10:32;;;;;;;7.50;1.43;;;6.30;99.90;;;;;;5022353;28;20195;-45
2021/11/18 01:12:59;;;;;;;10.23;1.70;;;6.30;99.90;;;;;;5009570;28;20200;-47
2021/11/18 01:15:29;;;;;;;5.30;2.00;;;6.30;99.90;;;;;;5021662;28;20192;-45
2021/11/18 01:17:57;;;;;;;8.63;2.23;;;6.30;99.90;;;;;;5015774;28;20216;-46
2021/11/18 01:20:29;;;;;;;10.83;1.73;;;6.30;99.90;;;;;;5021107;28;20199;-47
2021/11/18 01:22:59;;;;;;;14.20;1.60;;;6.30;99.90;;;;;;5020309;28;20203;-51
2021/11/18 01:25:28;;;;;;;8.70;1.87;;;6.30;99.90;;;;;;5030840;28;20223;-47
2021/11/18 01:27:55;;;;;;;4.80;1.83;;;6.30;99.90;;;;;;5016624;28;20212;-51
2021/11/18 01:30:27;;;;;;;9.27;2.00;;;6.30;99.90;;;;;;5015174;28;20196;-45
2021/11/18 01:32:56;;;;;;;12.67;2.30;;;6.30;99.90;;;;;;5017464;28;20202;-49
2021/11/18 01:35:33;;;;;;;16.87;2.23;;;6.30;99.90;;;;;;5021675;28;20211;-45
2021/11/18 01:38:00;;;;;;;8.47;2.17;;;6.40;99.90;;;;;;5019504;28;20942;-46
2021/11/18 01:40:31;;;;;;;10.00;1.80;;;6.40;99.90;;;;;;5020760;28;20290;-48
2021/11/18 01:43:08;;;;;;;9.50;2.00;;;6.40;99.90;;;;;;5018386;28;20215;-47
2021/11/18 01:45:36;;;;;;;10.80;2.60;;;6.40;99.90;;;;;;5010147;28;20259;-45
2021/11/18 01:48:04;;;;;;;8.37;1.90;;;6.40;99.90;;;;;;5016033;28;20255;-52
2021/11/18 01:50:35;;;;;;;11.27;2.33;;;6.40;99.90;;;;;;5021038;28;20223;-47
2021/11/18 01:53:07;;;;;;;8.83;2.23;;;6.40;99.90;;;;;;5018454;28;20723;-46
2021/11/18 01:55:35;;;;;;;7.73;2.27;;;6.40;99.90;;;;;;5021649;28;20736;-46
2021/11/18 01:58:05;;;;;;;17.40;2.40;;;6.40;99.90;;;;;;5018445;28;20220;-48
2021/11/18 02:00:53;;;;;;;13.43;2.53;;;6.50;99.90;;;;;;5007769;28;20269;-48
2021/11/18 02:03:21;;;;;;;8.17;2.27;;;6.50;99.90;;;;;;5018713;28;20295;-45
2021/11/18 02:06:13;;;;;;;13.60;2.90;;;6.40;99.90;;;;;;5014612;28;20290;-49
2021/11/18 02:08:40;;;;;;;9.93;2.13;;;6.40;99.90;;;;;;5021495;28;20228;-46
2021/11/18 02:11:26;;;;;;;8.17;1.87;;;6.40;99.90;;;;;;5016959;28;20195;-49
2021/11/18 02:13:54;;;;;;;9.70;2.20;;;6.40;99.90;;;;;;5023034;28;20225;-47
2021/11/18 02:16:21;;;;;;;13.13;2.30;;;6.40;99.90;;;;;;5009849;28;20230;-46
2021/11/18 02:18:48;;;;;;;8.47;2.30;;;6.40;99.90;;;;;;5024289;28;20200;-47
2021/11/18 02:21:17;;;;;;;15.63;2.47;;;6.40;99.90;;;;;;5016836;28;20503;-48
2021/11/18 02:23:48;;;;;;;14.13;2.20;;;6.40;99.90;;;;;;5024913;28;20199;-45
2021/11/18 02:26:15;;;;;;;11.00;1.90;;;6.40;99.90;;;;;;5022157;28;20321;-47
2021/11/18 02:28:45;;;;;;;12.67;2.23;;;6.40;99.90;;;;;;5026163;28;20653;-51
2021/11/18 02:31:30;;;;;;;5.57;1.83;;;6.40;99.90;;;;;;5009256;28;20204;-47
2021/11/18 02:33:59;;;;;;;10.30;2.67;;;6.40;99.90;;;;;;5023983;28;20219;-48
2021/11/18 02:36:28;;;;;;;10.20;2.43;;;6.40;99.90;;;;;;5020104;28;20227;-46
2021/11/18 02:38:55;;;;;;;10.53;2.87;;;6.40;99.90;;;;;;5024657;28;20211;-45
2021/11/18 02:41:23;;;;;;;4.20;2.17;;;6.40;99.90;;;;;;5022116;28;20290;-46
2021/11/18 02:43:50;;;;;;;6.80;1.93;;;6.40;99.90;;;;;;5024298;28;20303;-46
2021/11/18 02:46:17;;;;;;;14.57;2.13;;;6.40;99.90;;;;;;5007533;28;21022;-48
2021/11/18 02:48:45;;;;;;;8.10;2.20;;;6.50;99.90;;;;;;5023842;28;20282;-45
2021/11/18 02:51:16;;;;;;;13.57;2.20;;;6.50;99.90;;;;;;5015885;28;20204;-47
2021/11/18 02:53:44;;;;;;;8.43;1.70;;;6.50;99.90;;;;;;5024211;28;20257;-46
2021/11/18 02:56:12;;;;;;;7.43;1.90;;;6.50;99.90;;;;;;5020076;28;20219;-47
2021/11/18 02:58:43;;;;;;;12.80;2.77;;;6.50;99.90;;;;;;5024236;28;20196;-46
2021/11/18 03:01:14;;;;;;;8.30;1.97;;;6.60;99.90;;;;;;5018361;28;22632;-45
2021/11/18 03:03:42;;;;;;;8.77;1.90;;;6.60;99.90;;;;;;5021598;28;20687;-50
2021/11/18 03:06:09;;;;;;;16.70;2.87;;;6.60;99.90;;;;;;5020255;28;20459;-46
2021/11/18 03:08:36;;;;;;;8.97;2.63;;;6.60;99.90;;;;;;5019319;28;20219;-46
2021/11/18 03:11:04;;;;;;;19.13;2.77;;;6.60;99.90;;;;;;5021167;28;20204;-48
2021/11/18 03:13:32;;;;;;;12.40;2.23;;;6.60;99.90;;;;;;5023368;28;20208;-47
2021/11/18 03:16:04;;;;;;;12.77;1.90;;;6.60;99.90;;;;;;5012269;28;20599;-47
2021/11/18 03:18:32;;;;;;;9.30;2.40;;;6.60;99.90;;;;;;5023489;28;20247;-45
2021/11/18 03:21:01;;;;;;;8.00;2.10;;;6.60;99.90;;;;;;5017686;28;20196;-50
2021/11/18 03:23:28;;;;;;;10.23;2.50;;;6.60;99.90;;;;;;5016893;28;20204;-46
2021/11/18 03:25:58;;;;;;;12.67;2.37;;;6.60;99.90;;;;;;5035159;28;20549;-46
2021/11/18 03:28:29;;;;;;;10.30;2.43;;;6.60;99.90;;;;;;5023725;28;20496;-46
2021/11/18 03:30:58;;;;;;;14.03;2.67;;;6.60;99.90;;;;;;5021876;28;20230;-49
2021/11/18 03:33:29;;;;;;;14.27;2.60;;;6.60;99.90;;;;;;5012051;28;20211;-51
2021/11/18 03:35:57;;;;;;;14.20;2.60;;;6.70;99.90;;;;;;5021757;28;20204;-47
2021/11/18 03:38:25;;;;;;;10.07;2.03;;;6.70;99.90;;;;;;5017175;28;20205;-45
2021/11/18 03:41:05;;;;;;;15.87;3.10;;;6.70;99.90;;;;;;5020494;28;20578;-48
2021/11/18 03:43:39;;;;;;;9.80;3.50;;;6.70;99.90;;;;;;5023272;28;20222;-47
2021/11/18 03:46:06;;;;;;;10.53;1.80;;;6.80;99.90;;;;;;5020021;28;20227;-49
2021/11/18 03:48:34;;;;;;;13.40;2.80;;;6.80;99.90;;;;;;5011990;28;20218;-46
2021/11/18 03:51:02;;;;;;;18.43;2.30;;;6.80;99.90;;;;;;5020550;28;20677;-45
2021/11/18 03:53:33;;;;;;;14.90;2.53;;;6.90;99.90;;;;;;5018124;28;20214;-52
2021/11/18 03:56:00;;;;;;;14.43;2.80;;;6.90;99.90;;;;;;5020598;28;20905;-48
2021/11/18 03:58:27;;;;;;;11.57;2.37;;;6.90;99.90;;;;;;5021802;28;20192;-48
2021/11/18 04:00:56;;;;;;;15.63;2.97;;;7.00;99.90;;;;;;5021890;28;20747;-49
2021/11/18 04:03:22;;;;;;;8.70;2.47;;;7.00;99.90;;;;;;5020833;28;20203;-48
2021/11/18 04:05:49;;;;;;;9.03;2.37;;;7.10;99.90;;;;;;5012185;28;20213;-45
2021/11/18 04:08:16;;;;;;;12.30;2.57;;;7.10;99.90;;;;;;5019164;28;20224;-50
2021/11/18 04:10:43;;;;;;;12.87;2.80;;;7.10;99.90;;;;;;5018216;28;20668;-45
2021/11/18 04:13:10;;;;;;;11.67;2.60;;;7.20;99.90;;;;;;5018868;28;20207;-48
2021/11/18 04:15:38;;;;;;;10.43;2.90;;;7.20;99.90;;;;;;5012733;28;20204;-52
2021/11/18 04:18:06;;;;;;;11.13;2.80;;;7.20;99.90;;;;;;5021608;28;20223;-45
2021/11/18 04:20:38;;;;;;;11.33;2.27;;;7.20;99.90;;;;;;5000691;28;20262;-47
2021/11/18 04:23:06;;;;;;;12.17;2.37;;;7.20;99.90;;;;;;5021461;28;20196;-48
2021/11/18 04:25:36;;;;;;;14.87;3.77;;;7.30;99.90;;;;;;5015473;28;20767;-48
2021/11/18 04:28:04;;;;;;;11.13;2.43;;;7.30;99.90;;;;;;5017282;28;20224;-45
2021/11/18 04:30:33;;;;;;;10.97;3.47;;;7.30;99.90;;;;;;5020680;28;20764;-47
2021/11/18 04:33:25;;;;;;;15.53;3.93;;;7.30;99.90;;;;;;5017221;28;20216;-49
2021/11/18 04:35:53;;;;;;;14.73;2.90;;;7.40;99.90;;;;;;5008083;28;20218;-52
2021/11/18 04:38:24;;;;;;;13.93;2.43;;;7.40;99.90;;;;;;5021515;28;20196;-48
2021/11/18 04:40:51;;;;;;;12.10;3.07;;;7.40;99.90;;;;;;5015039;28;20335;-45
2021/11/18 04:43:19;;;;;;;12.40;3.10;;;7.40;99.90;;;;;;5022128;28;20204;-51
2021/11/18 04:45:49;;;;;;;15.10;3.23;;;7.40;99.90;;;;;;5019370;28;20200;-49
2021/11/18 04:48:16;;;;;;;12.33;2.30;;;7.40;99.90;;;;;;5023699;28;20831;-44
2021/11/18 04:50:45;;;;;;;12.93;3.10;;;7.40;99.90;;;;;;5018414;28;20924;-45
2021/11/18 04:53:14;;;;;;;7.47;2.27;;;7.40;99.90;;;;;;5010435;28;20212;-46
2021/11/18 04:55:43;;;;;;;17.40;3.60;;;7.50;99.90;;;;;;5019449;28;20204;-44
2021/11/18 04:58:10;;;;;;;19.20;3.40;;;7.40;99.90;;;;;;5017785;28;20207;-48
2021/11/18 05:00:41;;;;;;;8.23;3.10;;;7.50;99.90;;;;;;5012646;28;20880;-46
2021/11/18 05:03:08;;;;;;;13.90;2.60;;;7.50;99.90;;;;;;5021502;28;20727;-49
2021/11/18 05:05:35;;;;;;;12.77;2.83;;;7.50;99.90;;;;;;5019331;28;20643;-47
2021/11/18 05:08:04;;;;;;;16.40;2.97;;;7.50;99.90;;;;;;5008606;28;20227;-45
2021/11/18 05:10:31;;;;;;;14.83;3.00;;;7.50;99.90;;;;;;5019726;28;20196;-50
2021/11/18 05:12:58;;;;;;;15.07;3.53;;;7.50;99.90;;;;;;5016890;28;20192;-47
2021/11/18 05:15:32;;;;;;;12.60;3.20;;;7.50;99.90;;;;;;5020326;28;20204;-46
2021/11/18 05:17:59;;;;;;;9.97;3.87;;;7.50;99.90;;;;;;5013593;28;20349;-46
2021/11/18 05:20:26;;;;;;;14.20;2.93;;;7.50;99.90;;;;;;5019730;28;20208;-47
2021/11/18 05:22:54;;;;;;;9.67;3.13;;;7.50;99.90;;;;;;5008371;28;20236;-46
2021/11/18 05:25:25;;;;;;;19.90;4.60;;;7.50;99.90;;;;;;5013699;28;20204;-47
2021/11/18 05:27:52;;;;;;;17.03;5.40;;;7.50;99.90;;;;;;5013462;28;22196;-48
2021/11/18 05:30:23;;;;;;;14.40;3.63;;;7.50;99.90;;;;;;5022055;28;20564;-47
2021/11/18 05:32:51;;;;;;;15.57;3.90;;;7.50;99.90;;;;;;5019052;28;20208;-45
2021/11/18 05:35:24;;;;;;;15.80;4.07;;;7.50;99.90;;;;;;5021545;28;20239;-44
2021/11/18 05:37:51;;;;;;;19.67;4.33;;;7.50;99.90;;;;;;5007783;28;20232;-44
2021/11/18 05:40:19;;;;;;;15.43;3.40;;;7.50;99.90;;;;;;5016981;28;20746;-44
2021/11/18 05:42:48;;;;;;;9.13;3.20;;;7.50;99.90;;;;;;5017812;28;20330;-47
2021/11/18 05:45:16;;;;;;;17.70;4.03;;;7.50;99.90;;;;;;5019068;28;20584;-47
2021/11/18 05:47:55;;;;;;;16.07;3.87;;;7.60;99.90;;;;;;5019695;28;20215;-48
2021/11/18 05:50:22;;;;;;;12.37;3.30;;;7.60;99.90;;;;;;5027045;28;20203;-45
2021/11/18 05:52:49;;;;;;;19.17;4.37;;;7.60;99.90;;;;;;5007798;28;20207;-45
2021/11/18 05:55:19;;;;;;;17.93;3.97;;;7.60;99.90;;;;;;5022015;28;20200;-48
2021/11/18 05:57:46;;;;;;;21.57;4.47;;;7.70;99.90;;;;;;5018443;28;20286;-48
2021/11/18 06:00:18;;;;;;;11.60;3.70;;;7.70;99.90;;;;;;5018694;28;20219;-47
2021/11/18 06:02:45;;;;;;;15.50;3.43;;;7.70;99.90;;;;;;5019003;28;20203;-45
2021/11/18 06:05:13;;;;;;;20.20;4.37;;;7.70;99.90;;;;;;5014015;28;20367;-48
2021/11/18 06:07:41;;;;;;;26.97;4.97;;;7.70;99.90;;;;;;5014892;28;20697;-45
2021/11/18 06:10:09;;;;;;;17.17;4.37;;;7.70;99.90;;;;;;5018541;28;20828;-47
2021/11/18 06:12:35;;;;;;;24.33;5.43;;;7.70;99.90;;;;;;5021937;28;20207;-47
2021/11/18 06:15:04;;;;;;;14.53;3.67;;;7.70;99.90;;;;;;5014887;28;20216;-46
2021/11/18 06:17:32;;;;;;;18.37;4.70;;;7.70;99.90;;;;;;5018053;28;20227;-46
2021/11/18 06:19:58;;;;;;;9.40;3.10;;;7.70;99.90;;;;;;5022103;28;20225;-50
2021/11/18 06:22:27;;;;;;;17.37;4.13;;;7.70;99.90;;;;;;5013640;28;20205;-50
2021/11/18 06:25:02;;;;;;;19.30;4.43;;;7.70;99.90;;;;;;5009467;28;20660;-47
2021/11/18 06:27:29;;;;;;;15.83;4.30;;;7.70;99.90;;;;;;5023217;28;20227;-47
2021/11/18 06:29:59;;;;;;;17.23;4.33;;;7.80;99.90;;;;;;5020721;28;20223;-45
2021/11/18 06:32:25;;;;;;;13.57;4.70;;;7.70;99.90;;;;;;5023253;28;20208;-48
2021/11/18 06:34:56;;;;;;;22.37;3.80;;;7.70;99.90;;;;;;5024837;28;20301;-44
2021/11/18 06:37:23;;;;;;;14.03;4.10;;;7.70;99.90;;;;;;5021377;28;20223;-46
2021/11/18 06:39:49;;;;;;;11.80;4.57;;;7.70;99.90;;;;;;5027413;28;21022;-44
2021/11/18 06:42:17;;;;;;;13.27;3.63;;;7.70;99.90;;;;;;5012932;28;20319;-45
2021/11/18 06:44:55;;;;;;;12.60;3.77;;;7.70;99.90;;;;;;5024122;28;20944;-45
2021/11/18 06:47:22;;;;;;;16.10;3.80;;;7.80;99.90;;;;;;5031996;28;20269;-47
2021/11/18 06:49:53;;;;;;;19.43;4.30;;;7.80;99.90;;;;;;5013499;28;20707;-48
2021/11/18 06:52:21;;;;;;;16.97;4.57;;;7.80;99.90;;;;;;5027949;28;20200;-47
2021/11/18 06:54:49;;;;;;;17.07;4.20;;;7.80;99.90;;;;;;5017745;28;20303;-47
2021/11/18 06:57:18;;;;;;;14.80;4.30;;;7.80;99.90;;;;;;5011651;28;20234;-47
2021/11/18 06:59:45;;;;;;;21.40;4.93;;;7.80;99.90;;;;;;5020838;28;20188;-47
2021/11/18 07:02:12;;;;;;;17.90;5.17;;;7.80;99.90;;;;;;5026030;28;22012;-45
2021/11/18 07:04:39;;;;;;;14.27;4.73;;;7.80;99.90;;;;;;5010732;28;20208;-45
2021/11/18 07:07:07;;;;;;;26.10;6.10;;;7.80;99.90;;;;;;5023551;28;20289;-45
2021/11/18 07:09:37;;;;;;;18.97;5.47;;;7.90;99.90;;;;;;5016475;28;20274;-46
2021/11/18 07:12:19;;;;;;;21.90;6.00;;;7.90;99.90;;;;;;5022063;28;20345;-46
2021/11/18 07:14:48;;;;;;;21.13;5.07;;;7.90;99.90;;;;;;5027832;28;20203;-45
2021/11/18 07:17:16;;;;;;;25.97;5.37;;;7.90;99.90;;;;;;5017668;28;20246;-48
2021/11/18 07:19:44;;;;;;;14.83;4.47;;;7.90;99.90;;;;;;5016134;28;20962;-46
2021/11/18 07:22:12;;;;;;;19.70;5.03;;;7.90;99.90;;;;;;5019882;28;20226;-46
2021/11/18 07:25:02;;;;;;;16.90;4.40;;;8.00;99.90;;;;;;5017999;28;20218;-47
2021/11/18 07:27:30;;;;;;;19.83;4.57;;;8.00;99.90;;;;;;5020389;28;20724;-49
2021/11/18 07:29:58;;;;;;;19.27;5.07;;;8.00;99.90;;;;;;5010793;28;20215;-49
2021/11/18 07:32:25;;;;;;;20.03;4.90;;;8.00;99.90;;;;;;5021447;28;20204;-49
2021/11/18 07:34:52;;;;;;;18.00;5.10;;;8.10;99.90;;;;;;5020840;28;20231;-49
2021/11/18 07:37:26;;;;;;;20.43;5.60;;;8.10;99.90;;;;;;5016991;28;20239;-49
2021/11/18 07:39:53;;;;;;;20.50;5.10;;;8.10;99.90;;;;;;5017298;28;20204;-48
2021/11/18 07:42:22;;;;;;;19.23;5.57;;;8.10;99.90;;;;;;5018001;28;20254;-51
2021/11/18 07:45:12;;;;;;;17.30;5.10;;;8.20;99.90;;;;;;5016086;28;20258;-45
2021/11/18 07:48:09;;;;;;;16.00;4.47;;;8.20;99.90;;;;;;5018438;28;20239;-45
2021/11/18 07:50:37;;;;;;;14.90;4.47;;;8.20;99.90;;;;;;5019254;28;20200;-48
2021/11/18 07:53:04;;;;;;;15.60;4.10;;;8.20;99.90;;;;;;5023968;28;20207;-48
2021/11/18 07:55:31;;;;;;;20.73;4.83;;;8.20;99.90;;;;;;5020799;28;20212;-47
2021/11/18 07:57:59;;;;;;;16.40;4.00;;;8.30;99.90;;;;;;5001620;28;20245;-48
2021/11/18 08:00:27;;;;;;;18.40;4.77;;;8.30;99.90;;;;;;5006913;28;20223;-47
2021/11/18 08:03:12;;;;;;;19.67;6.07;;;8.30;99.90;;;;;;5013339;28;23147;-45
2021/11/18 08:06:11;;;;;;;20.47;5.43;;;8.30;99.90;;;;;;5017873;28;20231;-45
2021/11/18 08:08:45;;;;;;;24.13;5.17;;;8.30;99.90;;;;;;5012827;28;20654;-51
2021/11/18 08:11:14;;;;;;;17.63;5.03;;;8.40;99.90;;;;;;5021911;28;20204;-45
2021/11/18 08:13:42;;;;;;;19.00;4.30;;;8.40;99.90;;;;;;5021822;28;20191;-50
2021/11/18 08:16:09;;;;;;;22.17;5.30;;;8.40;99.90;;;;;;5012115;28;20227;-45
2021/11/18 08:18:37;;;;;;;19.70;5.10;;;8.50;99.90;;;;;;5018500;28;20227;-46
2021/11/18 08:21:04;;;;;;;23.47;5.30;;;8.50;99.90;;;;;;5011988;28;20858;-45
2021/11/18 08:23:33;;;;;;;16.97;4.70;;;8.50;99.90;;;;;;5020587;28;20641;-45
2021/11/18 08:26:01;;;;;;;17.70;4.83;;;8.60;99.90;;;;;;5029075;28;20200;-45
2021/11/18 08:28:30;;;;;;;26.33;5.33;;;8.60;99.90;;;;;;5019993;28;20269;-48
2021/11/18 08:31:01;;;;;;;29.00;6.50;;;8.60;99.90;;;;;;5001713;28;21163;-48
2021/11/18 08:33:32;;;;;;;22.07;5.33;;;8.60;99.90;;;;;;5017225;28;20736;-48
2021/11/18 08:35:59;;;;;;;20.47;5.77;;;8.60;99.90;;;;;;5014408;28;20203;-44
2021/11/18 08:38:27;;;;;;;16.10;5.03;;;8.70;99.90;;;;;;5011285;28;20204;-46
2021/11/18 08:40:56;;;;;;;25.73;5.77;;;8.70;99.90;;;;;;5005862;28;20196;-44
2021/11/18 08:43:25;;;;;;;30.27;6.57;;;8.70;99.90;;;;;;5018536;28;20295;-44
2021/11/18 08:45:53;;;;;;;20.63;5.83;;;8.70;99.90;;;;;;5017278;28;20211;-46
2021/11/18 08:48:22;;;;;;;18.00;5.07;;;8.80;99.90;;;;;;5010458;28;20223;-46
2021/11/18 08:50:52;;;;;;;16.90;5.93;;;8.80;99.90;;;;;;5012843;28;20243;-48
2021/11/18 08:53:22;;;;;;;19.23;5.93;;;8.80;99.90;;;;;;5022036;28;20210;-45
2021/11/18 08:55:49;;;;;;;24.57;6.83;;;8.80;99.90;;;;;;5029308;28;20200;-45
2021/11/18 08:58:21;;;;;;;24.00;6.20;;;8.80;99.90;;;;;;5023991;28;20235;-45
2021/11/18 09:01:03;;;;;;;14.33;6.20;;;8.80;99.90;;;;;;5020504;28;20897;-46
2021/11/18 09:03:37;;;;;;;19.07;6.33;;;8.80;99.90;;;;;;5008064;28;20257;-46
2021/11/18 09:06:08;;;;;;;19.80;5.83;;;8.80;99.90;;;;;;5016775;28;20960;-44
2021/11/18 09:08:37;;;;;;;19.67;5.80;;;8.80;99.90;;;;;;5015813;28;20215;-48
2021/11/18 09:11:09;;;;;;;21.90;7.13;;;8.80;99.90;;;;;;5023371;28;20191;-45
2021/11/18 09:13:36;;;;;;;16.93;6.00;;;8.90;99.90;;;;;;5022165;28;20212;-47
2021/11/18 09:16:04;;;;;;;20.90;6.60;;;8.90;99.90;;;;;;5020185;28;20191;-46
2021/11/18 09:18:32;;;;;;;22.47;6.20;;;8.90;99.90;;;;;;5013317;28;20207;-49
2021/11/18 09:21:01;;;;;;;21.20;6.30;;;8.90;99.90;;;;;;5016698;28;20377;-44
2021/11/18 09:23:37;;;;;;;24.67;7.53;;;8.90;99.90;;;;;;5028177;28;20755;-45
2021/11/18 09:26:08;;;;;;;19.33;6.10;;;9.00;99.90;;;;;;5028041;28;20246;-44
2021/11/18 09:28:35;;;;;;;19.83;6.10;;;9.00;99.90;;;;;;5025224;28;20207;-45
2021/11/18 09:31:15;;;;;;;24.47;7.10;;;9.00;99.90;;;;;;5022424;28;20204;-45
2021/11/18 09:33:43;;;;;;;25.23;6.30;;;9.00;99.90;;;;;;5022121;28;20283;-47
2021/11/18 09:36:11;;;;;;;32.57;7.90;;;9.10;99.90;;;;;;5019181;28;20250;-45
2021/11/18 09:38:43;;;;;;;24.77;7.67;;;9.10;99.90;;;;;;5023070;28;20231;-49
2021/11/18 09:41:33;;;;;;;24.00;6.77;;;9.10;99.90;;;;;;5026495;28;20214;-44
2021/11/18 09:44:40;;;;;;;22.33;7.17;;;9.10;99.90;;;;;;5028223;28;20339;-50
2021/11/18 09:47:40;;;;;;;27.40;6.50;;;9.10;99.90;;;;;;5021900;28;20283;-45
2021/11/18 09:50:19;;;;;;;21.10;7.50;;;9.10;99.90;;;;;;5011715;28;20224;-47
2021/11/18 09:53:10;;;;;;;24.07;7.27;;;9.10;99.90;;;;;;5024948;28;20203;-46
2021/11/18 09:55:42;;;;;;;18.23;6.23;;;9.10;99.90;;;;;;5028143;28;20191;-45
2021/11/18 09:58:38;;;;;;;16.13;5.57;;;9.10;99.90;;;;;;5014975;28;20212;-48
2021/11/18 10:01:41;;;;;;;20.40;5.80;;;9.10;99.90;;;;;;5018740;28;20317;-45
2021/11/18 10:04:24;;;;;;;18.83;6.10;;;9.10;99.90;;;;;;5028524;28;20206;-49
2021/11/18 10:06:55;;;;;;;24.00;7.00;;;9.10;99.90;;;;;;5009594;28;20232;-44
2021/11/18 10:09:33;;;;;;;15.10;6.17;;;9.20;99.90;;;;;;5019478;28;20250;-46
2021/11/18 10:12:06;;;;;;;19.43;6.07;;;9.20;99.90;;;;;;5024972;28;20226;-49
2021/11/18 10:14:53;;;;;;;25.07;6.93;;;9.30;99.90;;;;;;5015216;28;20195;-45
2021/11/18 10:17:25;;;;;;;18.87;6.67;;;9.30;99.90;;;;;;5020419;28;20272;-44
2021/11/18 10:20:07;;;;;;;22.10;6.30;;;9.30;99.90;;;;;;5018348;28;20197;-47
2021/11/18 10:22:36;;;;;;;26.47;7.43;;;9.40;99.90;;;;;;5012537;28;20207;-44
2021/11/18 10:25:08;;;;;;;19.73;6.27;;;9.40;99.90;;;;;;5024594;28;20283;-47
2021/11/18 10:27:37;;;;;;;27.03;6.50;;;9.40;99.90;;;;;;5027138;28;20223;-45
2021/11/18 10:30:13;;;;;;;24.97;7.80;;;9.50;99.90;;;;;;5018083;28;20211;-48
2021/11/18 10:33:00;;;;;;;14.80;6.00;;;9.50;99.90;;;;;;5034152;28;20198;-47
2021/11/18 10:35:34;;;;;;;18.03;6.67;;;9.50;99.90;;;;;;5025435;28;20192;-49
2021/11/18 10:38:21;;;;;;;19.27;6.77;;;9.50;99.90;;;;;;5010086;28;20212;-50
2021/11/18 10:40:56;;;;;;;24.80;7.70;;;9.50;99.90;;;;;;5025980;28;20279;-45
2021/11/18 10:43:24;;;;;;;20.97;6.10;;;9.60;99.90;;;;;;5016211;28;20210;-45
2021/11/18 10:45:59;;;;;;;18.43;7.03;;;9.60;99.90;;;;;;5020814;28;20226;-47
2021/11/18 10:48:29;;;;;;;22.03;7.30;;;9.70;99.90;;;;;;5022933;28;20951;-45
2021/11/18 10:51:02;;;;;;;22.93;6.23;;;9.70;99.90;;;;;;5019728;28;20223;-48
2021/11/18 10:53:31;;;;;;;17.70;5.67;;;9.80;99.90;;;;;;5010756;28;20204;-48
2021/11/18 10:56:12;;;;;;;22.60;6.37;;;9.80;99.90;;;;;;5022664;28;20196;-45
2021/11/18 10:58:41;;;;;;;20.87;5.93;;;9.90;99.90;;;;;;5025884;28;20204;-45
2021/11/18 11:01:29;;;;;;;18.80;6.60;;;9.90;99.90;;;;;;5017502;28;20290;-54
2021/11/18 11:03:57;;;;;;;17.00;5.57;;;;;;;;;;5024493;28;20627;-55
2021/11/18 11:06:25;;;;;;;16.20;5.80;;;9.90;99.90;;;;;;5018590;28;20223;-52
2021/11/18 11:08:53;;;;;;;25.03;5.97;;;;;;;;;;5010761;28;20577;-55
2021/11/18 11:11:41;;;;;;;23.33;6.10;;;10.10;99.90;;;;;;5026838;28;20882;-56
2021/11/18 11:14:43;;;;;;;19.40;5.27;;;10.10;99.90;;;;;;5027581;28;20543;-55
2021/11/18 11:17:40;;;;;;;17.73;4.87;;;10.20;99.90;;;;;;5013720;28;20235;-53
2021/11/18 11:20:12;;;;;;;16.10;5.43;;;10.20;99.90;;;;;;5022283;28;20193;-52
2021/11/18 11:22:46;;;;;;;18.77;6.23;;;10.20;99.90;;;;;;5023896;28;20208;-48
2021/11/18 11:25:49;;;;;;;13.10;4.93;;;10.20;99.90;;;;;;5006579;28;20191;-52
2021/11/18 11:28:30;;;;;;;14.77;4.13;;;10.20;99.90;;;;;;5012685;28;20212;-52
2021/11/18 11:31:19;;;;;;;16.73;5.27;;;10.20;99.90;;;;;;5027469;28;20223;-55
2021/11/18 11:33:52;;;;;;;18.90;5.13;;;10.20;99.90;;;;;;5019583;28;20204;-50
2021/11/18 11:36:23;;;;;;;17.47;5.23;;;10.20;99.90;;;;;;5029430;28;20223;-53
2021/11/18 11:38:58;;;;;;;23.70;5.97;;;10.30;99.90;;;;;;5021646;28;20692;-53
2021/11/18 11:41:53;;;;;;;19.30;5.60;;;10.30;99.90;;;;;;5001064;28;20281;-48
2021/11/18 11:44:32;;;;;;;21.60;4.60;;;10.30;99.90;;;;;;5020875;28;20388;-50
2021/11/18 11:47:04;;;;;;;15.87;4.87;;;10.30;99.90;;;;;;5024914;28;20223;-54
2021/11/18 11:49:37;;;;;;;14.43;4.57;;;10.40;99.90;;;;;;5023433;28;20204;-49
2021/11/18 11:52:32;;;;;;;18.10;5.37;;;10.40;99.90;;;;;;5018666;28;20223;-53
2021/11/18 11:55:22;;;;;;;21.07;5.10;;;10.40;99.90;;;;;;5015138;28;20200;-54
2021/11/18 11:57:53;;;;;;;16.93;5.30;;;10.40;99.90;;;;;;5019825;28;20719;-50
2021/11/18 12:00:26;;;;;;;16.73;5.47;;;10.40;99.90;;;;;;5029905;28;20734;-53
2021/11/18 12:03:21;;;;;;;23.80;6.10;;;10.40;99.90;;;;;;5028804;28;20206;-53
2021/11/18 12:05:54;;;;;;;12.50;4.27;;;10.30;99.90;;;;;;5023231;28;20688;-53
2021/11/18 12:08:28;;;;;;;15.03;5.13;;;10.30;99.90;;;;;;5015301;28;20216;-51
2021/11/18 12:10:59;;;;;;;14.40;4.60;;;10.30;99.90;;;;;;5020333;28;20219;-55
2021/11/18 12:13:39;;;;;;;18.13;4.73;;;10.30;99.90;;;;;;5017634;28;20195;-53
2021/11/18 12:16:13;;;;;;;17.07;4.63;;;10.30;99.90;;;;;;5011787;28;20285;-54
2021/11/18 12:18:45;;;;;;;13.87;4.60;;;10.30;99.90;;;;;;5022937;28;20215;-49
2021/11/18 12:21:15;;;;;;;13.73;4.53;;;10.30;99.90;;;;;;5014483;28;20588;-51
2021/11/18 12:24:02;;;;;;;13.97;4.27;;;10.30;99.90;;;;;;5025245;28;20191;-52
2021/11/18 12:26:42;;;;;;;18.40;5.23;;;10.20;99.90;;;;;;5022348;28;20219;-49
2021/11/18 12:29:28;;;;;;;18.33;4.83;;;10.20;99.90;;;;;;5003866;28;20207;-50
2021/11/18 12:32:13;;;;;;;12.13;3.83;;;10.30;99.90;;;;;;5021976;28;20230;-54
2021/11/18 12:34:54;;;;;;;16.07;4.37;;;10.30;99.90;;;;;;5024151;28;20208;-49
2021/11/18 12:37:28;;;;;;;14.10;4.87;;;10.20;99.90;;;;;;5016274;28;20224;-53
2021/11/18 12:40:14;;;;;;;18.87;5.90;;;10.20;99.90;;;;;;5027054;28;20215;-53
2021/11/18 12:42:55;;;;;;;15.90;4.37;;;10.20;99.90;;;;;;5025128;28;20203;-52
2021/11/18 12:45:38;;;;;;;15.20;4.43;;;10.20;99.90;;;;;;5001457;28;20207;-50
2021/11/18 12:48:16;;;;;;;21.33;5.00;;;10.20;99.90;;;;;;5013094;28;21059;-54
2021/11/18 12:50:53;;;;;;;16.43;4.67;;;10.20;99.90;;;;;;5010945;28;20207;-52
2021/11/18 12:53:31;;;;;;;20.00;5.87;;;10.20;99.90;;;;;;5023717;28;20192;-53
2021/11/18 12:56:12;;;;;;;16.20;3.90;;;10.20;99.90;;;;;;5013402;28;20794;-50
2021/11/18 12:58:56;;;;;;;15.77;4.60;;;10.20;99.90;;;;;;5012924;28;20196;-53
2021/11/18 13:02:00;;;;;;;14.90;4.77;;;10.10;99.90;;;;;;5024093;28;20202;-52
2021/11/18 13:04:53;;;;;;;14.70;4.63;;;10.10;99.90;;;;;;5024011;28;20211;-50
2021/11/18 13:07:40;;;;;;;21.77;5.23;;;10.00;99.90;;;;;;5016390;28;20227;-54
2021/11/18 13:10:30;;;;;;;18.40;4.77;;;10.00;99.90;;;;;;5015594;28;21555;-53
2021/11/18 13:13:28;;;;;;;13.40;4.40;;;10.00;99.90;;;;;;5020924;28;20195;-51
2021/11/18 13:16:32;;;;;;;16.20;4.50;;;10.00;99.90;;;;;;5002064;28;20952;-54